createdAt,value
2023-01-23T07:35:14.812Z,11.93
2023-01-23T07:37:42.597Z,11.03
2023-01-23T07:40:12.014Z,11.50
2023-01-23T07:42:40.039Z,11.32
2023-01-23T07:45:08.618Z,11.90
2023-01-23T07:47:36.608Z,11.40
2023-01-23T07:50:05.132Z,11.73
2023-01-23T07:52:34.405Z,11.52
2023-01-23T07:55:02.349Z,11.95
2023-01-23T07:57:30.008Z,11.23
2023-01-23T07:59:57.703Z,12.07
2023-01-23T08:02:25.528Z,11.43
2023-01-23T08:04:53.203Z,10.75
2023-01-23T08:07:21.348Z,11.40
2023-01-23T08:09:50.610Z,11.10
2023-01-23T08:12:18.309Z,11.23
2023-01-23T08:14:46.306Z,11.00
2023-01-23T08:17:14.247Z,11.07
2023-01-23T08:19:42.131Z,10.90
2023-01-23T08:25:03.031Z,11.35
2023-01-23T08:27:30.791Z,10.88
2023-01-23T08:29:58.487Z,10.82
2023-01-23T08:32:26.542Z,10.18
2023-01-23T08:34:55.062Z,10.50
2023-01-23T08:37:22.687Z,10.43
2023-01-23T08:39:50.445Z,11.10
2023-01-23T08:42:19.471Z,10.52
2023-01-23T08:44:47.262Z,10.13
2023-01-23T08:47:15.010Z,9.83
2023-01-23T08:49:42.709Z,10.95
2023-01-23T08:52:10.493Z,10.13
2023-01-23T08:54:38.286Z,10.73
2023-01-23T08:57:06.163Z,10.52
2023-01-23T08:59:35.673Z,10.88
2023-01-23T09:02:03.735Z,10.75
2023-01-23T09:04:31.916Z,11.15
2023-01-23T09:25:49.600Z,10.27
2023-01-23T09:28:17.333Z,11.02
2023-01-23T09:30:45.158Z,10.77
2023-01-23T09:33:14.470Z,10.77
2023-01-23T09:35:42.176Z,10.67
2023-01-23T09:38:09.873Z,10.90
2023-01-23T09:40:39.359Z,11.38
2023-01-23T09:43:13.742Z,10.60
2023-01-23T09:45:43.397Z,11.00
2023-01-23T09:48:20.857Z,11.02
2023-01-23T09:50:55.469Z,11.48
2023-01-23T09:53:25.213Z,11.13
2023-01-23T09:55:58.172Z,11.23
2023-01-23T09:58:29.977Z,10.55
2023-01-23T10:01:03.166Z,11.40
2023-01-23T10:03:33.691Z,11.07
2023-01-23T10:06:08.694Z,11.75
2023-01-23T10:08:40.991Z,11.35
2023-01-23T10:11:09.940Z,12.15
2023-01-23T10:13:50.272Z,11.70
2023-01-23T10:16:45.019Z,10.82
2023-01-23T10:19:30.272Z,11.10
2023-01-23T10:22:03.338Z,10.35
2023-01-23T10:24:44.656Z,10.85
2023-01-23T10:27:20.379Z,11.68
2023-01-23T10:29:50.907Z,10.80
2023-01-23T10:32:26.880Z,11.73
2023-01-23T10:34:59.176Z,11.57
2023-01-23T10:37:37.683Z,10.38
2023-01-23T10:40:09.268Z,11.60
2023-01-23T10:42:37.354Z,10.30
2023-01-23T10:45:05.851Z,10.48
2023-01-23T10:47:40.563Z,11.25
2023-01-23T10:50:12.856Z,11.40
2023-01-23T10:52:42.365Z,11.52
2023-01-23T10:55:29.331Z,10.75
2023-01-23T10:57:58.560Z,11.02
2023-01-23T11:00:31.503Z,11.10
2023-01-23T11:03:19.856Z,11.90
2023-01-23T11:14:53.964Z,11.67
2023-01-23T11:17:24.936Z,12.40
2023-01-23T11:19:54.812Z,11.80
2023-01-23T11:22:32.697Z,12.48
2023-01-23T11:25:03.330Z,11.82
2023-01-23T11:27:32.091Z,13.00
2023-01-23T11:30:28.970Z,12.93
2023-01-23T11:32:59.625Z,12.85
2023-01-23T11:35:46.819Z,11.77
2023-01-23T11:38:27.287Z,12.03
2023-01-23T11:40:58.079Z,12.60
2023-01-23T11:43:25.834Z,12.73
2023-01-23T11:46:24.599Z,12.10
2023-01-23T11:49:11.604Z,13.18
2023-01-23T11:51:43.413Z,13.27
2023-01-23T11:54:28.066Z,13.02
2023-01-23T11:57:10.883Z,12.77
2023-01-23T11:59:47.150Z,13.68
2023-01-23T12:02:33.803Z,14.18
2023-01-23T12:05:08.311Z,13.13
2023-01-23T12:07:41.487Z,14.38
2023-01-23T12:10:18.701Z,13.57
2023-01-23T12:13:03.440Z,14.18
2023-01-23T12:15:38.663Z,14.43
2023-01-23T12:18:17.228Z,13.88
2023-01-23T12:20:54.305Z,13.55
2023-01-23T12:23:41.928Z,12.85
2023-01-23T12:26:15.602Z,14.02
2023-01-23T12:29:24.655Z,13.52
2023-01-23T12:32:07.982Z,13.73
2023-01-23T12:34:57.982Z,13.30
2023-01-23T12:37:39.373Z,12.82
2023-01-23T12:40:12.790Z,14.43
2023-01-23T12:42:48.594Z,13.50
2023-01-23T12:45:22.398Z,12.82
2023-01-23T12:47:55.219Z,12.97
2023-01-23T12:50:26.020Z,14.05
2023-01-23T12:52:59.667Z,13.07
2023-01-23T12:55:31.294Z,13.35
2023-01-23T12:58:09.005Z,13.47
2023-01-23T13:00:46.692Z,13.95
2023-01-23T13:03:37.283Z,14.27
2023-01-23T13:06:21.717Z,12.75
2023-01-23T13:09:05.577Z,14.43
2023-01-23T13:11:46.602Z,13.60
2023-01-23T13:14:29.140Z,13.57
2023-01-23T13:16:58.916Z,14.38
2023-01-23T13:19:45.842Z,13.73
2023-01-23T13:22:27.279Z,14.68
2023-01-23T13:25:12.729Z,12.90
2023-01-23T13:30:44.967Z,12.95
2023-01-23T13:33:55.231Z,13.57
2023-01-23T13:36:31.548Z,12.27
2023-01-23T13:39:32.033Z,13.73
2023-01-23T13:42:45.881Z,13.23
2023-01-23T13:45:24.187Z,13.90
